Time,TemperatureF,DewpointF,PressureIn,WindDirection,WindDirectionDegrees,WindSpeedMPH,WindSpeedGustMPH,Humidity,HourlyPrecipIn,Conditions,Clouds,dailyrainin,SolarRadiationWatts/m^2,SoftwareType,DateUTC
2013-05-20 00:01:00,41.0,34.0,-100.00,NW,311,5.0,7.0,77,0.00,,,0.00,0.000000,,2013-05-20 06:01:00,
2013-05-20 00:32:00,40.0,34.0,-100.00,NW,317,6.0,11.0,78,0.00,,,0.00,0.000000,,2013-05-20 06:32:00,
2013-05-20 00:42:00,40.0,34.0,-100.00,NW,317,6.0,11.0,78,0.00,,,0.00,0.000000,,2013-05-20 06:42:00,
2013-05-20 00:52:00,40.0,34.0,-100.00,NW,317,6.0,11.0,78,0.00,,,0.00,0.000000,,2013-05-20 06:52:00,
2013-05-20 01:01:00,40.0,34.0,-100.00,NW,317,6.0,11.0,78,0.00,,,0.00,0.000000,,2013-05-20 07:01:00,
2013-05-20 01:32:00,39.0,35.0,-100.00,SW,235,6.0,10.0,86,0.00,,,0.00,0.000000,,2013-05-20 07:32:00,
2013-05-20 01:42:00,39.0,35.0,-100.00,SW,235,6.0,10.0,86,0.00,,,0.00,0.000000,,2013-05-20 07:42:00,
2013-05-20 01:52:00,39.0,35.0,-100.00,SW,235,6.0,10.0,86,0.00,,,0.00,0.000000,,2013-05-20 07:52:00,
2013-05-20 02:01:00,39.0,35.0,-100.00,SW,235,6.0,10.0,86,0.00,,,0.00,0.000000,,2013-05-20 08:01:00,
2013-05-20 02:32:00,38.0,35.0,-100.00,NW,318,1.0,10.0,88,0.00,,,0.00,0.000000,,2013-05-20 08:32:00,
2013-05-20 02:42:00,38.0,35.0,-100.00,NW,318,1.0,10.0,88,0.00,,,0.00,0.000000,,2013-05-20 08:42:00,
2013-05-20 02:52:00,38.0,35.0,-100.00,NW,318,1.0,10.0,88,0.00,,,0.00,0.000000,,2013-05-20 08:52:00,
2013-05-20 03:01:00,38.0,35.0,-100.00,NW,318,1.0,10.0,88,0.00,,,0.00,0.000000,,2013-05-20 09:01:00,
2013-05-20 03:33:00,38.0,35.0,-100.00,SW,218,5.0,7.0,89,0.00,,,0.00,0.000000,,2013-05-20 09:33:00,
2013-05-20 03:43:00,38.0,35.0,-100.00,SW,218,5.0,7.0,89,0.00,,,0.00,0.000000,,2013-05-20 09:43:00,
2013-05-20 03:52:00,38.0,35.0,-100.00,SW,218,5.0,7.0,89,0.00,,,0.00,0.000000,,2013-05-20 09:52:00,
2013-05-20 04:03:00,38.0,35.0,-100.00,SW,218,5.0,7.0,89,0.00,,,0.00,0.000000,,2013-05-20 10:03:00,
2013-05-20 04:33:00,38.0,35.0,-100.00,SW,235,4.0,7.0,89,0.00,,,0.00,0.000000,,2013-05-20 10:33:00,
2013-05-20 04:42:00,38.0,35.0,-100.00,SW,235,4.0,7.0,89,0.00,,,0.00,0.000000,,2013-05-20 10:42:00,
2013-05-20 04:52:00,38.0,35.0,-100.00,SW,235,4.0,7.0,89,0.00,,,0.00,0.000000,,2013-05-20 10:52:00,
2013-05-20 05:02:00,38.0,35.0,-100.00,SW,235,4.0,7.0,89,0.00,,,0.00,0.000000,,2013-05-20 11:02:00,
2013-05-20 05:32:00,38.0,36.0,-100.00,SW,219,2.0,4.0,91,0.00,,,-99.99,0.000000,,2013-05-20 11:32:00,
2013-05-20 05:42:00,38.0,36.0,-100.00,SW,219,2.0,4.0,91,0.00,,,-99.99,0.000000,,2013-05-20 11:42:00,
2013-05-20 05:52:00,38.0,36.0,-100.00,SW,219,2.0,4.0,91,0.00,,,-99.99,0.000000,,2013-05-20 11:52:00,
2013-05-20 06:01:00,38.0,36.0,-100.00,SW,219,2.0,4.0,91,0.00,,,-99.99,0.000000,,2013-05-20 12:01:00,
2013-05-20 06:32:00,38.0,36.0,-100.00,WSW,241,4.0,6.0,92,0.00,,,0.00,1.000000,,2013-05-20 12:32:00,
2013-05-20 06:42:00,38.0,36.0,-100.00,WSW,241,4.0,6.0,92,0.00,,,0.00,1.000000,,2013-05-20 12:42:00,
2013-05-20 06:52:00,38.0,36.0,-100.00,WSW,241,4.0,6.0,92,0.00,,,0.00,1.000000,,2013-05-20 12:52:00,
2013-05-20 07:01:00,38.0,36.0,-100.00,WSW,241,4.0,6.0,92,0.00,,,0.00,1.000000,,2013-05-20 13:01:00,
2013-05-20 08:32:00,39.0,36.0,-100.00,SW,221,4.0,6.0,89,-99.99,,,0.00,94.000000,,2013-05-20 14:32:00,
2013-05-20 08:42:00,39.0,36.0,-100.00,SW,221,4.0,6.0,89,-99.99,,,0.00,94.000000,,2013-05-20 14:42:00,
2013-05-20 08:52:00,39.0,36.0,-100.00,SW,221,4.0,6.0,89,-99.99,,,0.00,94.000000,,2013-05-20 14:52:00,
2013-05-20 09:01:00,39.0,36.0,-100.00,SW,221,4.0,6.0,89,-99.99,,,0.00,94.000000,,2013-05-20 15:01:00,
2013-05-20 09:33:00,40.0,37.0,-100.00,SSW,192,5.0,7.0,88,0.00,,,-99.99,166.000000,,2013-05-20 15:33:00,
2013-05-20 09:42:00,40.0,37.0,-100.00,SSW,192,5.0,7.0,88,0.00,,,-99.99,166.000000,,2013-05-20 15:42:00,
2013-05-20 09:53:00,40.0,37.0,-100.00,SSW,192,5.0,7.0,88,0.00,,,-99.99,166.000000,,2013-05-20 15:53:00,
2013-05-20 10:02:00,40.0,37.0,-100.00,SSW,192,5.0,7.0,88,0.00,,,-99.99,166.000000,,2013-05-20 16:02:00,
2013-05-20 10:33:00,43.0,36.0,-100.00,West,266,2.0,8.0,77,0.00,,,0.00,190.000000,,2013-05-20 16:33:00,
2013-05-20 10:42:00,43.0,36.0,-100.00,West,266,2.0,8.0,77,0.00,,,0.00,190.000000,,2013-05-20 16:42:00,
2013-05-20 10:53:00,43.0,36.0,-100.00,West,266,2.0,8.0,77,0.00,,,0.00,190.000000,,2013-05-20 16:53:00,
2013-05-20 11:02:00,43.0,36.0,-100.00,West,266,2.0,8.0,77,0.00,,,0.00,190.000000,,2013-05-20 17:02:00,
2013-05-20 11:33:00,47.0,36.0,-100.00,NE,36,3.0,7.0,65,0.00,,,0.00,352.000000,,2013-05-20 17:33:00,
2013-05-20 11:45:00,47.0,36.0,-100.00,NE,36,3.0,7.0,65,0.00,,,0.00,352.000000,,2013-05-20 17:45:00,
2013-05-20 11:53:00,47.0,36.0,-100.00,NE,36,3.0,7.0,65,0.00,,,0.00,352.000000,,2013-05-20 17:53:00,
2013-05-20 12:02:00,47.0,36.0,-100.00,NE,36,3.0,7.0,65,0.00,,,0.00,352.000000,,2013-05-20 18:02:00,
2013-05-20 12:33:00,46.0,36.0,-100.00,SSW,193,7.0,12.0,69,0.00,,,0.00,344.000000,,2013-05-20 18:33:00,
2013-05-20 12:42:00,46.0,36.0,-100.00,SSW,193,7.0,12.0,69,0.00,,,0.00,344.000000,,2013-05-20 18:42:00,
2013-05-20 12:55:00,46.0,36.0,-100.00,SSW,193,7.0,12.0,69,0.00,,,0.00,344.000000,,2013-05-20 18:55:00,
2013-05-20 13:04:00,46.0,36.0,-100.00,SSW,193,7.0,12.0,69,0.00,,,0.00,344.000000,,2013-05-20 19:04:00,
2013-05-20 14:32:00,54.0,36.0,-100.00,ENE,64,4.0,9.0,51,-99.99,,,0.00,771.000000,,2013-05-20 20:32:00,
2013-05-20 14:42:00,54.0,36.0,-100.00,ENE,64,4.0,9.0,51,-99.99,,,0.00,771.000000,,2013-05-20 20:42:00,
2013-05-20 14:52:00,54.0,36.0,-100.00,ENE,64,4.0,9.0,51,-99.99,,,0.00,771.000000,,2013-05-20 20:52:00,
2013-05-20 15:01:00,54.0,36.0,-100.00,ENE,64,4.0,9.0,51,-99.99,,,0.00,771.000000,,2013-05-20 21:01:00,
2013-05-20 16:33:00,55.0,32.0,-100.00,SW,224,10.0,14.0,42,-99.99,,,0.00,661.000000,,2013-05-20 22:33:00,
2013-05-20 16:42:00,55.0,32.0,-100.00,SW,224,10.0,14.0,42,-99.99,,,0.00,661.000000,,2013-05-20 22:42:00,
2013-05-20 16:52:00,55.0,32.0,-100.00,SW,224,10.0,14.0,42,-99.99,,,0.00,661.000000,,2013-05-20 22:52:00,
2013-05-20 17:02:00,55.0,32.0,-100.00,SW,224,10.0,14.0,42,-99.99,,,0.00,661.000000,,2013-05-20 23:02:00,
2013-05-20 17:32:00,58.0,33.0,-100.00,NNW,337,7.0,15.0,39,0.00,,,0.00,855.000000,,2013-05-20 23:32:00,
2013-05-20 17:42:00,58.0,33.0,-100.00,NNW,337,7.0,15.0,39,0.00,,,0.00,855.000000,,2013-05-20 23:42:00,
2013-05-20 17:53:00,58.0,33.0,-100.00,NNW,337,7.0,15.0,39,0.00,,,0.00,855.000000,,2013-05-20 23:53:00,
2013-05-20 18:01:00,58.0,33.0,-100.00,NNW,337,7.0,15.0,39,0.00,,,0.00,855.000000,,2013-05-21 00:01:00,
2013-05-20 18:32:00,57.0,36.0,-100.00,East,85,3.0,11.0,45,0.00,,,0.00,284.000000,,2013-05-21 00:32:00,
2013-05-20 18:42:00,57.0,36.0,-100.00,East,85,3.0,11.0,45,0.00,,,0.00,284.000000,,2013-05-21 00:42:00,
2013-05-20 18:52:00,57.0,36.0,-100.00,East,85,3.0,11.0,45,0.00,,,0.00,284.000000,,2013-05-21 00:52:00,
2013-05-20 19:01:00,57.0,36.0,-100.00,East,85,3.0,11.0,45,0.00,,,0.00,284.000000,,2013-05-21 01:01:00,
2013-05-20 19:32:00,57.0,35.0,-100.00,East,79,5.0,16.0,43,0.02,,,0.02,588.000000,,2013-05-21 01:32:00,
2013-05-20 19:42:00,57.0,35.0,-100.00,East,79,5.0,16.0,43,0.02,,,0.02,588.000000,,2013-05-21 01:42:00,
2013-05-20 19:52:00,57.0,35.0,-100.00,East,79,5.0,16.0,43,0.02,,,0.02,588.000000,,2013-05-21 01:52:00,
2013-05-20 20:01:00,57.0,35.0,-100.00,East,79,5.0,16.0,43,0.02,,,0.02,588.000000,,2013-05-21 02:01:00,
2013-05-20 20:32:00,51.0,36.0,-100.00,North,1,8.0,14.0,56,0.00,,,0.02,155.000000,,2013-05-21 02:32:00,
2013-05-20 20:42:00,51.0,36.0,-100.00,North,1,8.0,14.0,56,0.00,,,0.02,155.000000,,2013-05-21 02:42:00,
2013-05-20 20:52:00,51.0,36.0,-100.00,North,1,8.0,14.0,56,0.00,,,0.02,155.000000,,2013-05-21 02:52:00,
2013-05-20 21:02:00,51.0,36.0,-100.00,North,1,8.0,14.0,56,0.00,,,0.02,155.000000,,2013-05-21 03:02:00,
2013-05-20 21:33:00,49.0,34.0,-100.00,North,8,10.0,16.0,57,0.00,,,0.02,37.000000,,2013-05-21 03:33:00,
2013-05-20 21:43:00,49.0,34.0,-100.00,North,8,10.0,16.0,57,0.00,,,0.02,37.000000,,2013-05-21 03:43:00,
2013-05-20 21:53:00,49.0,34.0,-100.00,North,8,10.0,16.0,57,0.00,,,0.02,37.000000,,2013-05-21 03:53:00,
2013-05-20 22:03:00,49.0,34.0,-100.00,North,8,10.0,16.0,57,0.00,,,0.02,37.000000,,2013-05-21 04:03:00,
2013-05-20 22:33:00,48.0,34.0,-100.00,NNE,16,7.0,12.0,58,0.00,,,0.02,0.000000,,2013-05-21 04:33:00,
2013-05-20 22:42:00,48.0,34.0,-100.00,NNE,16,7.0,12.0,58,0.00,,,0.02,0.000000,,2013-05-21 04:42:00,
2013-05-20 22:53:00,48.0,34.0,-100.00,NNE,16,7.0,12.0,58,0.00,,,0.02,0.000000,,2013-05-21 04:53:00,
2013-05-20 23:02:00,48.0,34.0,-100.00,NNE,16,7.0,12.0,58,0.00,,,0.02,0.000000,,2013-05-21 05:02:00,
2013-05-20 23:32:00,47.0,34.0,-100.00,NE,49,8.0,12.0,60,0.00,,,0.02,0.000000,,2013-05-21 05:32:00,
2013-05-20 23:42:00,47.0,34.0,-100.00,NE,49,8.0,12.0,60,0.00,,,0.02,0.000000,,2013-05-21 05:42:00,
2013-05-20 23:52:00,47.0,34.0,-100.00,NE,49,8.0,12.0,60,0.00,,,0.02,0.000000,,2013-05-21 05:52:00,